Peer, Belgium
Current Conditions -  °F | °C
As of 8:55 PM on Saturday 25 Oct 2014 (Local Time) from EBBL Reporting Station
Few Clouds Few Clouds  
Wind Chill: 46°   Ceiling: Unl
Heat Index: 46°   Visibility: 2.5mi
Dew Point: 45°   Wind: 2mph
Humidity: 93%   Direction: NA
Pressure: 30.18"   Gusts: NA
Location:  51.13°N, 5.46°E
Report Text: EBBL 251855Z AUTO VRB02KT 4100 FEW041/// 08/07 Q1022 GRN
Loading
Personal Weather Stations






























Interactive Weather Map
Tropical Storm Tracking
New forecast layout! Learn more

10-Day Weather Forecast

Advertisements
Track Severe Weather on mobile